createdAt,value
2022-12-19T00:02:36.153Z,71.44
2022-12-19T00:07:57.145Z,71.50
2022-12-19T00:13:19.584Z,71.47
2022-12-19T00:18:41.730Z,71.43
2022-12-19T00:24:13.138Z,71.71
2022-12-19T00:29:41.648Z,71.47
2022-12-19T00:35:01.928Z,71.50
2022-12-19T00:40:22.442Z,71.68
2022-12-19T00:45:44.908Z,71.55
2022-12-19T00:51:12.679Z,71.54
2022-12-19T00:56:37.382Z,71.51
2022-12-19T01:02:00.515Z,71.42
2022-12-19T01:07:23.998Z,71.59
2022-12-19T01:12:45.860Z,71.50
2022-12-19T01:18:10.189Z,71.65
2022-12-19T01:23:30.812Z,71.62
2022-12-19T01:28:51.152Z,71.44
2022-12-19T01:34:12.014Z,71.58
2022-12-19T01:39:32.482Z,71.75
2022-12-19T01:45:15.069Z,71.89
2022-12-19T01:51:01.635Z,71.83
2022-12-19T01:56:28.706Z,71.65
2022-12-19T02:01:54.815Z,71.65
2022-12-19T02:07:18.542Z,71.55
2022-12-19T02:12:42.775Z,71.84
2022-12-19T02:18:43.287Z,71.73
2022-12-19T02:24:25.576Z,71.96
2022-12-19T02:29:58.539Z,71.83
2022-12-19T02:35:44.064Z,71.90
2022-12-19T02:41:14.989Z,71.75
2022-12-19T02:46:37.529Z,71.88
2022-12-19T02:51:58.308Z,71.99
2022-12-19T02:57:23.978Z,71.91
2022-12-19T03:03:05.929Z,72.03
2022-12-19T03:08:38.095Z,71.91
2022-12-19T03:14:04.503Z,71.90
2022-12-19T03:19:25.120Z,72.24
2022-12-19T03:24:45.837Z,71.96
2022-12-19T03:30:10.308Z,72.17
2022-12-19T03:35:35.420Z,72.21
2022-12-19T03:40:57.508Z,72.63
2022-12-19T03:46:26.048Z,72.28
2022-12-19T03:51:59.191Z,72.30
2022-12-19T03:57:28.912Z,72.44
2022-12-19T04:02:53.063Z,72.47
2022-12-19T04:08:14.355Z,72.42
2022-12-19T04:13:44.776Z,72.53
2022-12-19T04:19:14.748Z,72.84
2022-12-19T04:24:40.593Z,73.03
2022-12-19T04:30:02.227Z,73.35
2022-12-19T04:35:23.064Z,73.28
2022-12-19T04:40:44.176Z,73.52
2022-12-19T04:46:04.576Z,73.76
2022-12-19T04:51:25.291Z,73.85
2022-12-19T04:56:45.501Z,73.93
2022-12-19T05:02:06.328Z,74.04
2022-12-19T05:07:26.823Z,74.53
2022-12-19T05:12:47.045Z,74.56
2022-12-19T05:18:07.802Z,74.99
2022-12-19T05:23:28.741Z,75.24
2022-12-19T05:28:49.901Z,75.13
2022-12-19T05:34:10.979Z,75.16
2022-12-19T05:39:31.703Z,75.50
2022-12-19T05:44:52.095Z,75.74
2022-12-19T05:50:17.076Z,75.75
2022-12-19T05:55:44.934Z,76.29
2022-12-19T06:01:11.786Z,76.72
2022-12-19T06:06:32.349Z,77.17
2022-12-19T06:11:52.793Z,77.40
2022-12-19T06:17:13.273Z,77.82
2022-12-19T06:22:34.367Z,78.33
2022-12-19T06:27:54.894Z,78.56
2022-12-19T06:33:15.465Z,78.80
2022-12-19T06:38:35.951Z,79.08
2022-12-19T06:43:58.762Z,79.52
2022-12-19T06:49:19.683Z,79.66
2022-12-19T06:54:40.330Z,79.92
2022-12-19T07:00:01.218Z,80.08
2022-12-19T07:05:22.047Z,80.35
2022-12-19T07:10:42.775Z,80.69
2022-12-19T07:16:05.154Z,80.74
2022-12-19T07:21:25.914Z,80.99
2022-12-19T07:26:47.494Z,81.07
2022-12-19T07:32:07.765Z,81.32
2022-12-19T07:37:28.449Z,81.54
2022-12-19T07:42:49.143Z,81.66
2022-12-19T07:48:10.257Z,82.04
2022-12-19T07:53:31.281Z,82.25
2022-12-19T07:58:52.329Z,82.27
2022-12-19T08:04:13.355Z,82.49
2022-12-19T08:09:33.732Z,82.53
2022-12-19T08:14:57.166Z,82.79
2022-12-19T08:20:17.904Z,82.68
2022-12-19T08:25:38.799Z,82.87
2022-12-19T08:31:20.248Z,83.17
2022-12-19T08:36:40.879Z,83.29
2022-12-19T08:42:01.483Z,83.41
2022-12-19T08:47:21.784Z,83.46
2022-12-19T08:52:42.481Z,83.57
2022-12-19T08:58:03.038Z,83.81
2022-12-19T09:03:24.020Z,83.95
2022-12-19T09:08:46.858Z,84.15
2022-12-19T09:14:07.829Z,84.15
2022-12-19T09:19:28.683Z,84.14
2022-12-19T09:24:49.654Z,83.90
2022-12-19T09:30:12.706Z,83.90
2022-12-19T09:35:33.265Z,83.75
2022-12-19T09:40:57.918Z,83.63
2022-12-19T09:46:20.587Z,83.96
2022-12-19T09:51:49.278Z,84.28
2022-12-19T09:57:17.816Z,84.33
2022-12-19T10:02:50.779Z,84.73
2022-12-19T10:08:18.648Z,84.86
2022-12-19T10:13:51.528Z,84.90
2022-12-19T10:19:27.535Z,85.35
2022-12-19T10:25:15.957Z,85.62
2022-12-19T10:30:44.775Z,85.90
2022-12-19T10:36:10.777Z,85.92
2022-12-19T10:41:32.764Z,85.98
2022-12-19T10:46:55.097Z,86.01
2022-12-19T10:52:16.138Z,86.05
2022-12-19T10:57:36.801Z,86.27
2022-12-19T11:03:13.695Z,86.40
2022-12-19T11:08:39.660Z,86.50
2022-12-19T11:18:54.283Z,86.68
2022-12-19T11:29:27.583Z,86.56
2022-12-19T11:30:08.657Z,86.85
2022-12-19T11:37:16.306Z,86.94
2022-12-19T11:43:10.915Z,87.08
2022-12-19T11:48:41.979Z,87.26
2022-12-19T11:54:22.217Z,87.48
2022-12-19T11:59:42.793Z,87.73
2022-12-19T12:05:33.408Z,87.68
2022-12-19T12:17:03.679Z,87.60
2022-12-19T12:31:00.949Z,87.59
2022-12-19T12:31:46.583Z,87.40
2022-12-19T12:32:02.752Z,86.96
2022-12-19T12:41:06.734Z,87.67
2022-12-19T12:46:34.849Z,87.02
2022-12-19T12:51:55.997Z,86.68
2022-12-19T12:57:20.616Z,86.68
2022-12-19T13:02:46.482Z,86.20
2022-12-19T13:08:45.368Z,85.81
2022-12-19T13:14:34.428Z,85.03
2022-12-19T13:19:58.123Z,85.25
2022-12-19T13:25:27.315Z,86.00
2022-12-19T13:31:19.771Z,86.26
2022-12-19T13:39:51.157Z,86.46
2022-12-19T13:42:55.519Z,86.86
2022-12-19T13:48:40.317Z,87.53
2022-12-19T13:54:01.210Z,87.73
2022-12-19T13:59:24.962Z,87.83
2022-12-19T14:04:45.822Z,87.85
2022-12-19T14:11:37.744Z,88.01
2022-12-19T14:16:00.558Z,87.90
2022-12-19T14:22:08.919Z,88.24
2022-12-19T14:28:20.372Z,88.43
2022-12-19T14:33:39.297Z,88.71
2022-12-19T14:39:24.703Z,88.74
2022-12-19T14:52:11.542Z,88.76
2022-12-19T14:54:23.273Z,88.70
2022-12-19T14:56:52.075Z,88.72
2022-12-19T15:02:05.739Z,88.64
2022-12-19T15:07:31.873Z,88.78
2022-12-19T15:14:50.872Z,88.87
2022-12-19T15:19:01.881Z,88.71
2022-12-19T15:24:22.348Z,88.73
2022-12-19T15:29:44.262Z,88.65
2022-12-19T15:35:17.305Z,88.96
2022-12-19T15:40:40.502Z,89.05
2022-12-19T15:46:01.364Z,89.33
2022-12-19T15:51:22.034Z,89.28
2022-12-19T15:56:46.725Z,89.22
2022-12-19T16:02:20.247Z,89.37
2022-12-19T16:07:40.793Z,89.22
2022-12-19T16:13:01.601Z,89.07
2022-12-19T16:18:22.212Z,88.95
2022-12-19T16:23:43.051Z,89.39
2022-12-19T16:29:04.850Z,89.27
2022-12-19T16:34:25.521Z,89.29
2022-12-19T16:39:46.146Z,89.54
2022-12-19T16:45:23.516Z,89.74
2022-12-19T16:50:44.355Z,89.65
2022-12-19T16:56:20.810Z,89.78
2022-12-19T17:01:44.005Z,89.83
2022-12-19T17:07:10.125Z,90.13
2022-12-19T17:12:30.612Z,90.35
2022-12-19T17:17:53.107Z,90.82
2022-12-19T17:23:22.471Z,90.59
2022-12-19T17:28:43.020Z,90.86
2022-12-19T17:34:06.465Z,90.96
2022-12-19T17:39:29.232Z,90.90
2022-12-19T17:44:50.274Z,91.00
2022-12-19T17:50:23.653Z,91.17
2022-12-19T17:55:44.194Z,91.02
2022-12-19T18:01:04.514Z,91.13
2022-12-19T18:06:25.255Z,90.99
2022-12-19T18:11:47.449Z,90.93
2022-12-19T18:17:11.770Z,91.06
2022-12-19T18:22:32.234Z,91.17
2022-12-19T18:27:53.155Z,91.13
2022-12-19T18:33:21.355Z,91.31
2022-12-19T18:38:42.272Z,91.49
2022-12-19T18:44:03.023Z,91.31
2022-12-19T18:49:23.657Z,91.30
2022-12-19T18:54:44.341Z,91.36
2022-12-19T19:00:05.614Z,91.08
2022-12-19T19:05:29.061Z,91.08
2022-12-19T19:10:50.927Z,90.87
2022-12-19T19:16:22.377Z,90.75
2022-12-19T19:21:42.722Z,91.02
2022-12-19T19:27:03.666Z,91.18
2022-12-19T19:32:25.791Z,91.27
2022-12-19T19:37:50.069Z,91.38
2022-12-19T19:43:10.947Z,91.37
2022-12-19T19:48:31.631Z,91.43
2022-12-19T19:53:52.072Z,91.20
2022-12-19T19:59:12.543Z,91.34
2022-12-19T20:04:33.197Z,91.41
2022-12-19T20:09:53.897Z,91.44
2022-12-19T20:15:14.691Z,91.42
2022-12-19T20:20:35.461Z,91.57
2022-12-19T20:26:00.881Z,91.37
2022-12-19T20:31:23.695Z,91.33
2022-12-19T20:36:44.346Z,91.50
2022-12-19T20:42:06.528Z,91.45
2022-12-19T20:47:27.157Z,91.42
2022-12-19T20:52:47.611Z,91.50
2022-12-19T20:58:08.246Z,91.53
2022-12-19T21:03:30.231Z,91.73
2022-12-19T21:08:51.440Z,91.65
2022-12-19T21:14:12.472Z,91.75
2022-12-19T21:19:33.444Z,91.59
2022-12-19T21:24:53.961Z,91.77
2022-12-19T21:30:15.544Z,91.53
2022-12-19T21:35:38.138Z,91.68
2022-12-19T21:41:02.575Z,91.67
2022-12-19T21:46:25.312Z,91.73
2022-12-19T21:51:45.645Z,91.61
2022-12-19T21:57:06.270Z,91.48
2022-12-19T22:02:27.068Z,91.52
2022-12-19T22:07:47.930Z,91.50
2022-12-19T22:13:08.645Z,91.54
2022-12-19T22:18:29.252Z,91.78
2022-12-19T22:23:50.546Z,91.64
2022-12-19T22:29:16.468Z,91.68
2022-12-19T22:34:37.499Z,91.78
2022-12-19T22:40:00.220Z,91.88
2022-12-19T22:45:21.013Z,91.79
2022-12-19T22:50:46.932Z,91.79
2022-12-19T22:56:12.917Z,91.55
2022-12-19T23:01:39.499Z,91.73
2022-12-19T23:07:00.285Z,91.49
2022-12-19T23:12:20.820Z,91.32
2022-12-19T23:17:41.519Z,91.39
2022-12-19T23:23:02.045Z,91.16
2022-12-19T23:28:22.363Z,91.07
2022-12-19T23:33:43.083Z,91.08
2022-12-19T23:39:04.214Z,91.06
2022-12-19T23:44:24.603Z,91.09
2022-12-19T23:49:45.118Z,90.80
2022-12-19T23:55:06.512Z,90.71
